createdAt,value
2023-01-31T00:01:45.363Z,99460.38
2023-01-31T00:04:13.480Z,99457.91
2023-01-31T00:06:43.556Z,99457.25
2023-01-31T00:09:13.125Z,99458.16
2023-01-31T00:11:41.220Z,99466.66
2023-01-31T00:14:17.324Z,99475.22
2023-01-31T00:16:46.851Z,99468.03
2023-01-31T00:19:14.759Z,99480.28
2023-01-31T00:21:43.929Z,99475.03
2023-01-31T00:24:13.525Z,99476.97
2023-01-31T00:26:41.523Z,99479.56
2023-01-31T00:29:09.520Z,99479.66
2023-01-31T00:31:37.894Z,99485.44
2023-01-31T00:34:08.218Z,99481.28
2023-01-31T00:36:37.318Z,99484.13
2023-01-31T00:39:07.576Z,99489.97
2023-01-31T00:41:37.471Z,99490.97
2023-01-31T00:44:06.652Z,99485.63
2023-01-31T00:46:35.754Z,99492.63
2023-01-31T00:49:04.722Z,99498.59
2023-01-31T00:51:34.499Z,99504.59
2023-01-31T00:54:03.000Z,99501.19
2023-01-31T00:56:30.933Z,99506.34
2023-01-31T00:59:00.372Z,99519.25
2023-01-31T01:01:29.620Z,99521.94
2023-01-31T01:03:59.483Z,99534.84
2023-01-31T01:06:30.244Z,99540.00
2023-01-31T01:09:03.441Z,99536.56
2023-01-31T01:11:34.512Z,99539.25
2023-01-31T01:14:03.459Z,99533.34
2023-01-31T01:16:34.422Z,99546.97
2023-01-31T01:19:03.388Z,99540.16
2023-01-31T01:21:33.391Z,99547.91
2023-01-31T01:24:03.051Z,99546.56
2023-01-31T01:26:32.981Z,99555.25
2023-01-31T01:29:02.694Z,99556.88
2023-01-31T01:31:31.420Z,99568.91
2023-01-31T01:34:00.860Z,99568.91
2023-01-31T01:36:29.524Z,99570.72
2023-01-31T01:38:57.550Z,99585.34
2023-01-31T01:41:27.069Z,99575.03
2023-01-31T01:43:57.951Z,99581.97
2023-01-31T01:46:29.322Z,99584.72
2023-01-31T01:49:01.201Z,99580.53
2023-01-31T01:51:31.275Z,99593.50
2023-01-31T01:54:03.948Z,99583.38
2023-01-31T01:56:39.984Z,99582.38
2023-01-31T01:59:11.899Z,99590.13
2023-01-31T02:01:40.710Z,99592.69
2023-01-31T02:04:14.766Z,99596.16
2023-01-31T02:06:42.894Z,99600.59
2023-01-31T02:09:17.987Z,99609.31
2023-01-31T02:11:47.426Z,99600.69
2023-01-31T02:14:15.551Z,99608.97
2023-01-31T02:16:43.504Z,99607.50
2023-01-31T02:19:21.230Z,99604.59
2023-01-31T02:22:10.893Z,99616.81
2023-01-31T02:25:14.047Z,99604.75
2023-01-31T02:28:23.150Z,99619.38
2023-01-31T02:31:33.044Z,99612.50
2023-01-31T02:34:10.890Z,99615.75
2023-01-31T02:36:52.609Z,99614.06
2023-01-31T02:39:30.658Z,99617.47
2023-01-31T02:42:08.200Z,99619.31
2023-01-31T02:45:03.093Z,99625.38
2023-01-31T02:47:42.597Z,99627.97
2023-01-31T02:50:26.035Z,99635.63
2023-01-31T02:53:00.366Z,99635.78
2023-01-31T02:55:50.938Z,99633.97
2023-01-31T02:58:21.270Z,99641.94
2023-01-31T03:00:50.799Z,99642.75
2023-01-31T03:03:23.256Z,99644.59
2023-01-31T03:06:59.743Z,99648.00
2023-01-31T03:09:37.550Z,99652.44
2023-01-31T03:12:20.928Z,99655.91
2023-01-31T03:14:57.512Z,99652.75
2023-01-31T03:17:34.481Z,99662.91
2023-01-31T03:20:09.557Z,99664.72
2023-01-31T03:22:41.529Z,99664.97
2023-01-31T03:25:15.056Z,99665.06
2023-01-31T03:27:52.584Z,99667.56
2023-01-31T03:30:24.245Z,99679.19
2023-01-31T03:32:59.160Z,99672.19
2023-01-31T03:35:30.775Z,99679.91
2023-01-31T03:38:06.142Z,99689.66
2023-01-31T03:40:41.734Z,99682.00
2023-01-31T03:43:17.328Z,99676.16
2023-01-31T03:45:49.157Z,99679.75
2023-01-31T03:48:19.062Z,99676.94
2023-01-31T03:50:52.169Z,99680.59
2023-01-31T03:53:26.095Z,99685.75
2023-01-31T03:56:01.172Z,99688.47
2023-01-31T03:58:32.847Z,99689.63
2023-01-31T04:01:03.682Z,99701.06
2023-01-31T04:03:37.285Z,99698.06
2023-01-31T04:06:05.544Z,99693.22
2023-01-31T04:08:34.134Z,99701.69
2023-01-31T04:11:05.383Z,99703.44
2023-01-31T04:13:33.306Z,99706.84
2023-01-31T04:16:01.204Z,99706.31
2023-01-31T04:18:29.091Z,99708.09
2023-01-31T04:20:57.405Z,99712.56
2023-01-31T04:23:26.644Z,99703.31
2023-01-31T04:25:55.172Z,99716.13
2023-01-31T04:28:24.545Z,99716.97
2023-01-31T04:30:55.275Z,99713.31
2023-01-31T04:33:23.758Z,99722.78
2023-01-31T04:35:52.845Z,99724.94
2023-01-31T04:38:20.845Z,99736.88
2023-01-31T04:40:48.708Z,99735.97
2023-01-31T04:43:16.640Z,99739.53
2023-01-31T04:45:45.988Z,99742.09
2023-01-31T04:48:14.327Z,99744.84
2023-01-31T04:50:42.126Z,99738.84
2023-01-31T04:53:10.131Z,99743.19
2023-01-31T04:55:38.110Z,99741.50
2023-01-31T04:58:07.132Z,99745.75
2023-01-31T05:00:35.534Z,99744.75
2023-01-31T05:03:05.042Z,99749.06
2023-01-31T05:05:36.334Z,99742.19
2023-01-31T05:08:05.481Z,99743.75
2023-01-31T05:10:35.144Z,99745.91
2023-01-31T05:13:03.248Z,99750.06
2023-01-31T05:15:32.579Z,99764.16
2023-01-31T05:18:04.381Z,99755.75
2023-01-31T05:20:39.801Z,99760.75
2023-01-31T05:23:08.017Z,99767.69
2023-01-31T05:25:36.915Z,99758.00
2023-01-31T05:28:05.134Z,99761.59
2023-01-31T05:30:33.370Z,99762.41
2023-01-31T05:33:01.518Z,99770.03
2023-01-31T05:35:29.551Z,99770.97
2023-01-31T05:37:58.791Z,99770.97
2023-01-31T05:40:26.714Z,99765.88
2023-01-31T05:42:59.915Z,99768.69
2023-01-31T05:45:28.116Z,99766.19
2023-01-31T05:47:56.337Z,99760.59
2023-01-31T05:50:24.572Z,99772.03
2023-01-31T05:52:53.169Z,99767.84
2023-01-31T05:55:23.081Z,99767.19
2023-01-31T05:57:51.177Z,99764.91
2023-01-31T06:00:19.655Z,99774.06
2023-01-31T06:02:48.204Z,99769.06
2023-01-31T06:05:16.317Z,99769.13
2023-01-31T06:07:44.272Z,99780.50
2023-01-31T06:10:13.800Z,99780.56
2023-01-31T06:12:43.173Z,99778.81
2023-01-31T06:15:12.012Z,99773.19
2023-01-31T06:17:39.919Z,99782.72
2023-01-31T06:20:08.460Z,99781.16
2023-01-31T06:22:36.474Z,99788.25
2023-01-31T06:25:05.138Z,99783.38
2023-01-31T06:27:33.646Z,99782.16
2023-01-31T06:30:02.977Z,99772.69
2023-01-31T06:32:30.900Z,99765.19
2023-01-31T06:34:58.732Z,99766.06
2023-01-31T06:37:26.579Z,99774.72
2023-01-31T06:39:54.569Z,99767.84
2023-01-31T06:42:22.676Z,99780.06
2023-01-31T06:44:50.496Z,99779.56
2023-01-31T06:47:19.957Z,99783.06
2023-01-31T06:49:47.913Z,99775.63
2023-01-31T06:52:15.782Z,99783.47
2023-01-31T06:54:43.705Z,99781.88
2023-01-31T06:57:11.605Z,99780.28
2023-01-31T06:59:39.465Z,99778.47
2023-01-31T07:02:07.936Z,99787.03
2023-01-31T07:04:37.237Z,99787.09
2023-01-31T07:07:05.467Z,99783.59
2023-01-31T07:09:33.556Z,99792.94
2023-01-31T07:12:02.999Z,99784.38
2023-01-31T07:14:31.436Z,99792.16
2023-01-31T07:16:59.478Z,99785.22
2023-01-31T07:19:27.386Z,99786.75
2023-01-31T07:21:56.671Z,99786.88
2023-01-31T07:24:24.572Z,99790.38
2023-01-31T07:26:53.486Z,99786.03
2023-01-31T07:29:21.424Z,99785.84
2023-01-31T07:31:50.146Z,99793.69
2023-01-31T07:34:19.040Z,99789.47
2023-01-31T07:36:46.917Z,99793.63
2023-01-31T07:39:16.318Z,99791.19
2023-01-31T07:41:44.387Z,99787.81
2023-01-31T07:44:12.371Z,99789.38
2023-01-31T07:46:41.817Z,99789.94
2023-01-31T07:49:11.544Z,99793.06
2023-01-31T07:51:39.968Z,99789.44
2023-01-31T07:54:07.885Z,99793.00
2023-01-31T07:56:37.183Z,99802.44
2023-01-31T07:59:05.402Z,99791.19
2023-01-31T08:01:51.054Z,99797.03
2023-01-31T08:04:21.921Z,99801.28
2023-01-31T08:06:51.831Z,99795.06
2023-01-31T08:09:19.791Z,99794.94
2023-01-31T08:11:49.071Z,99796.53
2023-01-31T08:14:16.970Z,99795.72
2023-01-31T08:16:45.338Z,99804.94
2023-01-31T08:19:13.565Z,99804.03
2023-01-31T08:21:41.468Z,99801.59
2023-01-31T08:24:10.265Z,99797.38
2023-01-31T08:26:38.327Z,99801.47
2023-01-31T08:29:10.502Z,99801.47
2023-01-31T08:31:38.470Z,99808.16
2023-01-31T08:34:08.804Z,99808.00
2023-01-31T08:36:36.854Z,99813.09
2023-01-31T08:39:05.320Z,99815.59
2023-01-31T08:41:35.083Z,99809.38
2023-01-31T08:44:04.885Z,99814.38
2023-01-31T08:46:36.663Z,99809.09
2023-01-31T08:49:07.458Z,99800.31
2023-01-31T08:51:35.387Z,99806.16
2023-01-31T08:54:03.287Z,99809.47
2023-01-31T08:56:31.329Z,99807.81
2023-01-31T08:58:59.513Z,99804.88
2023-01-31T09:01:27.649Z,99801.38
2023-01-31T09:03:58.241Z,99800.34
2023-01-31T09:06:28.091Z,99795.13
2023-01-31T09:08:57.678Z,99797.50
2023-01-31T09:11:27.847Z,99789.69
2023-01-31T09:13:55.578Z,99777.78
2023-01-31T09:16:23.530Z,99789.53
2023-01-31T09:18:51.684Z,99789.47
2023-01-31T09:21:22.723Z,99784.09
2023-01-31T09:23:55.139Z,99772.50
2023-01-31T09:26:23.109Z,99773.06
2023-01-31T09:28:51.254Z,99779.78
2023-01-31T09:31:21.554Z,99765.97
2023-01-31T09:33:49.458Z,99762.63
2023-01-31T09:36:21.305Z,99764.31
2023-01-31T09:38:49.631Z,99762.47
2023-01-31T09:41:24.185Z,99764.75
2023-01-31T09:43:57.301Z,99754.44
2023-01-31T09:46:29.835Z,99757.53
2023-01-31T09:49:01.484Z,99753.00
2023-01-31T09:51:31.056Z,99761.31
2023-01-31T09:53:59.222Z,99757.59
2023-01-31T09:56:36.823Z,99762.59
2023-01-31T09:59:15.502Z,99755.53
2023-01-31T10:01:50.213Z,99762.25
2023-01-31T10:04:43.810Z,99767.34
2023-01-31T10:07:21.328Z,99760.53
2023-01-31T10:09:55.116Z,99753.63
2023-01-31T10:12:29.697Z,99759.59
2023-01-31T10:15:01.163Z,99738.81
2023-01-31T10:17:32.731Z,99739.50
2023-01-31T10:20:07.106Z,99732.53
2023-01-31T10:22:43.035Z,99735.09
2023-01-31T10:25:23.011Z,99727.22
2023-01-31T10:27:55.792Z,99724.56
2023-01-31T10:30:31.695Z,99722.78
2023-01-31T10:33:05.086Z,99721.81
2023-01-31T10:35:38.366Z,99721.91
2023-01-31T10:38:17.002Z,99732.28
2023-01-31T10:40:49.781Z,99734.78
2023-01-31T10:43:23.296Z,99733.88
2023-01-31T10:45:51.264Z,99732.03
2023-01-31T10:48:22.029Z,99726.81
2023-01-31T10:51:06.231Z,99723.47
2023-01-31T10:53:51.740Z,99711.41
2023-01-31T10:56:29.402Z,99702.59
2023-01-31T10:58:59.514Z,99701.59
2023-01-31T11:01:27.346Z,99698.53
2023-01-31T11:03:57.486Z,99700.69
2023-01-31T11:06:25.391Z,99697.09
2023-01-31T11:08:58.476Z,99703.66
2023-01-31T11:11:29.097Z,99691.78
2023-01-31T11:13:59.317Z,99682.88
2023-01-31T11:16:28.721Z,99690.84
2023-01-31T11:18:56.709Z,99682.78
2023-01-31T11:21:27.291Z,99681.88
2023-01-31T11:24:04.826Z,99676.38
2023-01-31T11:26:35.406Z,99674.53
2023-01-31T11:29:08.503Z,99667.47
2023-01-31T11:31:42.825Z,99666.47
2023-01-31T11:34:20.699Z,99668.13
2023-01-31T11:36:48.564Z,99671.63
2023-01-31T11:39:32.998Z,99669.13
2023-01-31T11:42:08.423Z,99654.41
2023-01-31T11:44:36.294Z,99653.56
2023-01-31T11:47:06.046Z,99648.56
2023-01-31T11:49:36.582Z,99649.16
2023-01-31T11:52:14.516Z,99646.50
2023-01-31T11:54:47.199Z,99651.66
2023-01-31T11:57:17.411Z,99645.91
2023-01-31T11:59:45.188Z,99644.59
2023-01-31T12:02:27.584Z,99636.50
2023-01-31T12:04:56.443Z,99630.44
2023-01-31T12:07:25.557Z,99624.34
2023-01-31T12:09:54.934Z,99628.78
2023-01-31T12:12:31.346Z,99622.78
2023-01-31T12:15:03.757Z,99614.19
2023-01-31T12:17:36.016Z,99610.72
2023-01-31T12:20:28.445Z,99607.63
2023-01-31T12:23:08.325Z,99609.19
2023-01-31T12:25:51.816Z,99597.97
2023-01-31T12:28:31.868Z,99586.56
2023-01-31T12:31:22.665Z,99588.47
2023-01-31T12:34:06.946Z,99593.63
2023-01-31T12:36:48.487Z,99588.56
2023-01-31T12:39:33.511Z,99575.75
2023-01-31T12:42:24.305Z,99585.25
2023-01-31T12:45:02.014Z,99571.34
2023-01-31T12:47:57.476Z,99575.56
2023-01-31T12:50:33.548Z,99573.91
2023-01-31T12:53:27.816Z,99571.34
2023-01-31T12:56:08.227Z,99573.25
2023-01-31T12:58:46.270Z,99570.84
2023-01-31T13:01:17.692Z,99571.84
2023-01-31T13:04:11.366Z,99573.72
2023-01-31T13:06:44.155Z,99573.53
2023-01-31T13:09:26.511Z,99571.59
2023-01-31T13:12:01.819Z,99569.09
2023-01-31T13:14:37.314Z,99564.13
2023-01-31T13:17:08.871Z,99569.34
2023-01-31T13:19:41.020Z,99559.97
2023-01-31T13:22:15.091Z,99551.31
2023-01-31T13:24:48.390Z,99547.06
2023-01-31T13:27:23.949Z,99549.66
2023-01-31T13:30:00.460Z,99554.81
2023-01-31T13:32:31.893Z,99561.31
2023-01-31T13:35:04.196Z,99553.66
2023-01-31T13:37:36.693Z,99555.66
2023-01-31T13:40:11.131Z,99545.53
2023-01-31T13:42:39.097Z,99544.94
2023-01-31T13:45:11.279Z,99540.03
2023-01-31T13:47:47.243Z,99533.22
2023-01-31T13:50:31.731Z,99530.97
2023-01-31T13:53:03.804Z,99528.56
2023-01-31T13:55:40.355Z,99521.84
2023-01-31T13:58:16.949Z,99534.81
2023-01-31T14:00:50.858Z,99525.69
2023-01-31T14:03:20.761Z,99527.44
2023-01-31T14:05:55.262Z,99527.59
2023-01-31T14:08:33.216Z,99523.53
2023-01-31T14:11:02.469Z,99520.88
2023-01-31T14:13:44.216Z,99521.38
2023-01-31T14:16:39.841Z,99516.88
2023-01-31T14:19:52.124Z,99517.06
2023-01-31T14:22:21.418Z,99519.72
2023-01-31T14:25:01.185Z,99506.81
2023-01-31T14:27:48.663Z,99510.28
2023-01-31T14:30:44.008Z,99516.38
2023-01-31T14:33:22.638Z,99513.13
2023-01-31T14:36:15.444Z,99512.56
2023-01-31T14:38:58.118Z,99515.84
2023-01-31T14:41:42.928Z,99519.53
2023-01-31T14:44:23.020Z,99526.69
2023-01-31T14:47:08.206Z,99523.66
2023-01-31T14:50:14.934Z,99523.00
2023-01-31T14:52:58.167Z,99521.56
2023-01-31T14:55:49.209Z,99515.81
2023-01-31T14:58:21.759Z,99516.66
2023-01-31T15:00:51.994Z,99510.91
2023-01-31T15:03:23.507Z,99504.19
2023-01-31T15:05:56.904Z,99508.50
2023-01-31T15:08:43.822Z,99509.91
2023-01-31T15:11:41.325Z,99503.03
2023-01-31T15:14:34.623Z,99501.25
2023-01-31T15:17:06.187Z,99501.44
2023-01-31T15:19:43.726Z,99499.03
2023-01-31T15:22:14.496Z,99500.84
2023-01-31T15:24:46.660Z,99484.78
2023-01-31T15:27:18.551Z,99486.78
2023-01-31T15:30:01.481Z,99485.88
2023-01-31T15:32:40.601Z,99482.53
2023-01-31T15:35:16.763Z,99475.97
2023-01-31T15:37:48.050Z,99479.53
2023-01-31T15:40:21.187Z,99471.97
2023-01-31T15:42:49.029Z,99469.72
2023-01-31T15:45:23.511Z,99477.38
2023-01-31T15:48:00.160Z,99471.38
2023-01-31T15:50:29.437Z,99474.09
2023-01-31T15:53:03.881Z,99468.13
2023-01-31T15:55:33.463Z,99462.25
2023-01-31T15:58:03.899Z,99465.69
2023-01-31T16:00:34.858Z,99459.22
2023-01-31T16:03:04.017Z,99456.06
2023-01-31T16:05:34.697Z,99452.81
2023-01-31T16:08:08.036Z,99449.53
2023-01-31T16:10:36.457Z,99449.69
2023-01-31T16:13:04.919Z,99440.72
2023-01-31T16:15:33.587Z,99442.28
2023-01-31T16:18:03.920Z,99438.84
2023-01-31T16:20:44.207Z,99448.50
2023-01-31T16:23:29.077Z,99440.88
2023-01-31T16:26:02.913Z,99434.16
2023-01-31T16:28:37.276Z,99434.88
2023-01-31T16:31:07.587Z,99423.78
2023-01-31T16:33:36.483Z,99421.06
2023-01-31T16:36:15.089Z,99418.50
2023-01-31T16:38:57.332Z,99417.81
2023-01-31T16:41:37.540Z,99411.16
2023-01-31T16:44:06.316Z,99410.94
2023-01-31T16:46:39.514Z,99405.13
2023-01-31T16:49:18.242Z,99405.13
2023-01-31T16:51:47.635Z,99397.47
2023-01-31T16:54:21.284Z,99394.16
2023-01-31T16:57:06.618Z,99391.41
2023-01-31T16:59:50.386Z,99396.06
2023-01-31T17:02:22.180Z,99389.09
2023-01-31T17:04:52.078Z,99389.91
2023-01-31T17:07:22.135Z,99380.72
2023-01-31T17:09:56.717Z,99372.16
2023-01-31T17:12:27.112Z,99374.81
2023-01-31T17:15:00.897Z,99368.97
2023-01-31T17:17:32.815Z,99367.19
2023-01-31T17:20:03.196Z,99363.75
2023-01-31T17:22:31.129Z,99362.88
2023-01-31T17:25:00.411Z,99357.75
2023-01-31T17:27:28.535Z,99353.50
2023-01-31T17:29:56.489Z,99350.91
2023-01-31T17:32:24.437Z,99348.63
2023-01-31T17:34:52.371Z,99351.91
2023-01-31T17:37:30.294Z,99348.63
2023-01-31T17:40:01.704Z,99348.78
2023-01-31T17:42:29.642Z,99344.50
2023-01-31T17:44:57.467Z,99337.72
2023-01-31T17:47:27.028Z,99344.75
2023-01-31T17:49:55.603Z,99337.28
2023-01-31T17:52:23.531Z,99335.78
2023-01-31T17:54:51.419Z,99331.56
2023-01-31T17:57:20.760Z,99327.53
2023-01-31T17:59:48.670Z,99320.13
2023-01-31T18:02:16.571Z,99319.47
2023-01-31T18:04:44.426Z,99320.66
2023-01-31T18:07:16.792Z,99323.31
2023-01-31T18:09:45.727Z,99321.81
2023-01-31T18:12:13.692Z,99319.38
2023-01-31T18:14:43.051Z,99310.25
2023-01-31T18:17:11.296Z,99303.78
2023-01-31T18:19:39.459Z,99308.22
2023-01-31T18:22:07.429Z,99307.53
2023-01-31T18:24:35.369Z,99299.97
2023-01-31T18:27:03.278Z,99305.25
2023-01-31T18:29:31.395Z,99291.97
2023-01-31T18:32:02.696Z,99292.88
2023-01-31T18:34:33.066Z,99289.25
2023-01-31T18:37:01.081Z,99290.00
2023-01-31T18:39:29.040Z,99296.75
2023-01-31T18:41:56.969Z,99292.34
2023-01-31T18:44:25.106Z,99290.63
2023-01-31T18:46:54.298Z,99287.97
2023-01-31T18:49:24.120Z,99297.25
2023-01-31T18:51:51.958Z,99291.16
2023-01-31T18:54:19.987Z,99291.16
2023-01-31T18:56:47.925Z,99297.19
2023-01-31T18:59:15.856Z,99301.56
2023-01-31T19:01:43.777Z,99301.44
2023-01-31T19:04:11.630Z,99294.63
2023-01-31T19:06:41.999Z,99290.16
2023-01-31T19:09:11.285Z,99290.16
2023-01-31T19:11:40.355Z,99290.25
2023-01-31T19:14:08.647Z,99281.69
2023-01-31T19:16:39.935Z,99285.19
2023-01-31T19:19:08.273Z,99287.06
2023-01-31T19:21:37.056Z,99278.31
2023-01-31T19:24:08.635Z,99289.41
2023-01-31T19:26:36.983Z,99287.00
2023-01-31T19:29:07.025Z,99276.88
2023-01-31T19:31:36.548Z,99277.88
2023-01-31T19:34:06.748Z,99274.59
2023-01-31T19:36:36.512Z,99280.72
2023-01-31T19:39:08.594Z,99281.78
2023-01-31T19:41:36.984Z,99278.53
2023-01-31T19:44:05.207Z,99276.94
2023-01-31T19:46:35.727Z,99278.69
2023-01-31T19:49:04.277Z,99283.81
2023-01-31T19:51:32.966Z,99277.94
2023-01-31T19:54:02.844Z,99277.09
2023-01-31T19:56:33.067Z,99280.81
2023-01-31T19:59:01.252Z,99271.56
2023-01-31T20:01:29.186Z,99274.34
2023-01-31T20:03:57.051Z,99278.59
2023-01-31T20:06:26.881Z,99279.56
2023-01-31T20:08:56.410Z,99279.63
2023-01-31T20:11:25.101Z,99283.25
2023-01-31T20:13:57.894Z,99276.63
2023-01-31T20:16:26.266Z,99278.25
2023-01-31T20:18:56.275Z,99271.63
2023-01-31T20:21:24.126Z,99272.06
2023-01-31T20:23:52.182Z,99263.53
2023-01-31T20:26:22.844Z,99270.31
2023-01-31T20:28:51.502Z,99265.38
2023-01-31T20:31:20.963Z,99263.75
2023-01-31T20:33:48.903Z,99265.47
2023-01-31T20:36:16.904Z,99262.91
2023-01-31T20:38:44.728Z,99255.19
2023-01-31T20:41:15.072Z,99255.38
2023-01-31T20:43:43.677Z,99250.16
2023-01-31T20:46:13.144Z,99251.19
2023-01-31T20:48:43.347Z,99252.19
2023-01-31T20:51:11.574Z,99251.34
2023-01-31T20:53:39.605Z,99249.84
2023-01-31T20:56:09.918Z,99248.19
2023-01-31T20:58:39.594Z,99238.88
2023-01-31T21:01:08.405Z,99229.81
2023-01-31T21:03:37.325Z,99232.59
2023-01-31T21:06:07.683Z,99231.91
2023-01-31T21:08:36.428Z,99230.38
2023-01-31T21:11:06.853Z,99227.00
2023-01-31T21:13:35.720Z,99233.59
2023-01-31T21:16:06.047Z,99232.66
2023-01-31T21:18:36.077Z,99231.84
2023-01-31T21:21:06.863Z,99233.72
2023-01-31T21:23:36.752Z,99231.84
2023-01-31T21:26:06.218Z,99236.22
2023-01-31T21:28:34.730Z,99232.94
2023-01-31T21:31:03.892Z,99228.09
2023-01-31T21:33:32.560Z,99234.34
2023-01-31T21:36:00.884Z,99234.16
2023-01-31T21:38:28.961Z,99237.50
2023-01-31T21:41:15.546Z,99240.06
2023-01-31T21:43:43.449Z,99238.56
2023-01-31T21:46:12.070Z,99246.38
2023-01-31T21:48:40.619Z,99244.72
2023-01-31T21:51:10.163Z,99250.78
2023-01-31T21:53:38.753Z,99245.78
2023-01-31T21:56:09.950Z,99247.44
2023-01-31T21:58:38.740Z,99243.34
2023-01-31T22:01:08.693Z,99240.09
2023-01-31T22:03:36.565Z,99243.06
2023-01-31T22:06:05.857Z,99246.41
2023-01-31T22:08:33.996Z,99248.13
2023-01-31T22:11:03.261Z,99244.03
2023-01-31T22:13:32.505Z,99239.72
2023-01-31T22:16:01.508Z,99237.22
2023-01-31T22:18:30.252Z,99238.06
2023-01-31T22:21:02.998Z,99225.41
2023-01-31T22:23:31.211Z,99228.09
2023-01-31T22:26:03.855Z,99223.03
2023-01-31T22:28:33.315Z,99227.25
2023-01-31T22:31:02.269Z,99219.84
2023-01-31T22:33:30.485Z,99214.19
2023-01-31T22:35:58.489Z,99216.25
2023-01-31T22:38:26.803Z,99218.19
2023-01-31T22:40:58.248Z,99212.28
2023-01-31T22:43:27.136Z,99219.25
2023-01-31T22:45:58.431Z,99224.56
2023-01-31T22:48:27.542Z,99212.56
2023-01-31T22:50:56.906Z,99213.41
2023-01-31T22:53:25.385Z,99225.34
2023-01-31T22:55:53.538Z,99220.38
2023-01-31T22:58:21.966Z,99230.53
2023-01-31T23:00:49.962Z,99224.63
2023-01-31T23:03:19.298Z,99223.13
2023-01-31T23:05:47.180Z,99223.25
2023-01-31T23:08:16.609Z,99224.16
2023-01-31T23:10:45.273Z,99225.03
2023-01-31T23:13:14.035Z,99236.50
2023-01-31T23:15:42.012Z,99234.91
2023-01-31T23:18:09.945Z,99237.66
2023-01-31T23:20:39.206Z,99242.75
2023-01-31T23:23:07.250Z,99241.97
2023-01-31T23:25:35.107Z,99248.06
2023-01-31T23:28:03.338Z,99251.53
2023-01-31T23:30:31.367Z,99245.75
2023-01-31T23:32:59.489Z,99251.13
2023-01-31T23:35:27.469Z,99245.16
2023-01-31T23:37:57.235Z,99241.75
2023-01-31T23:40:25.104Z,99241.75
2023-01-31T23:42:53.028Z,99229.94
2023-01-31T23:45:20.977Z,99224.97
2023-01-31T23:47:50.408Z,99220.69
2023-01-31T23:50:18.917Z,99220.75
2023-01-31T23:52:47.124Z,99224.16
2023-01-31T23:55:18.264Z,99218.25
2023-01-31T23:57:46.206Z,99213.94
